sensor_id;sensor_type;location;lat;lon;timestamp;P1;durP1;ratioP1;P2;durP2;ratioP2
5452;SDS011;2749;53.576;9.822;2023-08-06T00:00:07;2.43;;;2.23;;
5452;SDS011;2749;53.576;9.822;2023-08-06T00:02:33;2.47;;;2.27;;
5452;SDS011;2749;53.576;9.822;2023-08-06T00:04:59;2.17;;;1.90;;
5452;SDS011;2749;53.576;9.822;2023-08-06T00:07:25;2.40;;;2.13;;
5452;SDS011;2749;53.576;9.822;2023-08-06T00:09:51;2.37;;;2.17;;
5452;SDS011;2749;53.576;9.822;2023-08-06T00:12:17;2.53;;;2.33;;
5452;SDS011;2749;53.576;9.822;2023-08-06T00:14:43;2.73;;;1.83;;
5452;SDS011;2749;53.576;9.822;2023-08-06T00:17:09;1.70;;;1.60;;
5452;SDS011;2749;53.576;9.822;2023-08-06T00:19:35;2.33;;;2.13;;
5452;SDS011;2749;53.576;9.822;2023-08-06T00:22:01;2.23;;;2.03;;
5452;SDS011;2749;53.576;9.822;2023-08-06T00:24:27;2.60;;;2.00;;
5452;SDS011;2749;53.576;9.822;2023-08-06T00:26:53;3.80;;;2.30;;
5452;SDS011;2749;53.576;9.822;2023-08-06T00:29:19;2.80;;;2.23;;
5452;SDS011;2749;53.576;9.822;2023-08-06T00:31:45;2.40;;;2.20;;
5452;SDS011;2749;53.576;9.822;2023-08-06T00:34:11;2.00;;;1.90;;
5452;SDS011;2749;53.576;9.822;2023-08-06T00:36:37;2.13;;;1.93;;
5452;SDS011;2749;53.576;9.822;2023-08-06T00:39:03;2.50;;;2.30;;
5452;SDS011;2749;53.576;9.822;2023-08-06T00:41:29;3.23;;;2.90;;
5452;SDS011;2749;53.576;9.822;2023-08-06T00:43:55;2.50;;;2.30;;
5452;SDS011;2749;53.576;9.822;2023-08-06T00:46:20;2.67;;;2.47;;
5452;SDS011;2749;53.576;9.822;2023-08-06T00:48:47;2.30;;;2.10;;
5452;SDS011;2749;53.576;9.822;2023-08-06T00:51:13;2.33;;;2.13;;
5452;SDS011;2749;53.576;9.822;2023-08-06T00:53:39;2.77;;;2.57;;
5452;SDS011;2749;53.576;9.822;2023-08-06T00:56:06;2.33;;;2.13;;
5452;SDS011;2749;53.576;9.822;2023-08-06T00:58:32;2.63;;;2.43;;
5452;SDS011;2749;53.576;9.822;2023-08-06T01:00:58;2.50;;;2.27;;
5452;SDS011;2749;53.576;9.822;2023-08-06T01:03:24;2.80;;;2.60;;
5452;SDS011;2749;53.576;9.822;2023-08-06T01:05:50;3.30;;;3.00;;
5452;SDS011;2749;53.576;9.822;2023-08-06T01:13:20;3.67;;;3.37;;
5452;SDS011;2749;53.576;9.822;2023-08-06T01:15:50;3.27;;;2.97;;
5452;SDS011;2749;53.576;9.822;2023-08-06T01:18:19;2.90;;;2.70;;
5452;SDS011;2749;53.576;9.822;2023-08-06T01:20:45;3.13;;;2.87;;
5452;SDS011;2749;53.576;9.822;2023-08-06T01:23:11;3.40;;;3.10;;
5452;SDS011;2749;53.576;9.822;2023-08-06T01:25:42;3.97;;;3.67;;
5452;SDS011;2749;53.576;9.822;2023-08-06T01:28:14;3.10;;;2.77;;
5452;SDS011;2749;53.576;9.822;2023-08-06T01:30:41;3.80;;;3.50;;
5452;SDS011;2749;53.576;9.822;2023-08-06T01:33:08;3.90;;;3.60;;
5452;SDS011;2749;53.576;9.822;2023-08-06T01:35:34;4.97;;;4.57;;
5452;SDS011;2749;53.576;9.822;2023-08-06T01:38:01;6.50;;;5.20;;
5452;SDS011;2749;53.576;9.822;2023-08-06T01:40:27;5.90;;;4.37;;
5452;SDS011;2749;53.576;9.822;2023-08-06T01:42:54;4.70;;;4.30;;
5452;SDS011;2749;53.576;9.822;2023-08-06T01:45:20;4.80;;;4.30;;
5452;SDS011;2749;53.576;9.822;2023-08-06T01:47:46;4.60;;;4.20;;
5452;SDS011;2749;53.576;9.822;2023-08-06T01:50:12;4.97;;;4.50;;
5452;SDS011;2749;53.576;9.822;2023-08-06T01:52:38;5.03;;;4.57;;
5452;SDS011;2749;53.576;9.822;2023-08-06T01:55:04;4.30;;;3.70;;
5452;SDS011;2749;53.576;9.822;2023-08-06T01:57:30;4.77;;;4.20;;
5452;SDS011;2749;53.576;9.822;2023-08-06T01:59:55;4.60;;;4.20;;
5452;SDS011;2749;53.576;9.822;2023-08-06T02:02:21;5.37;;;4.33;;
5452;SDS011;2749;53.576;9.822;2023-08-06T02:04:47;4.80;;;4.40;;
5452;SDS011;2749;53.576;9.822;2023-08-06T02:07:13;5.67;;;5.07;;
5452;SDS011;2749;53.576;9.822;2023-08-06T02:09:39;5.00;;;4.30;;
5452;SDS011;2749;53.576;9.822;2023-08-06T02:12:05;5.63;;;4.70;;
5452;SDS011;2749;53.576;9.822;2023-08-06T02:14:32;3.80;;;3.40;;
5452;SDS011;2749;53.576;9.822;2023-08-06T02:16:58;7.13;;;5.00;;
5452;SDS011;2749;53.576;9.822;2023-08-06T02:19:24;5.10;;;4.70;;
5452;SDS011;2749;53.576;9.822;2023-08-06T02:21:49;5.10;;;4.27;;
5452;SDS011;2749;53.576;9.822;2023-08-06T02:24:15;5.00;;;4.60;;
5452;SDS011;2749;53.576;9.822;2023-08-06T02:26:41;5.20;;;3.97;;
5452;SDS011;2749;53.576;9.822;2023-08-06T02:29:07;4.17;;;3.77;;
5452;SDS011;2749;53.576;9.822;2023-08-06T02:31:33;5.10;;;4.40;;
5452;SDS011;2749;53.576;9.822;2023-08-06T02:33:59;5.20;;;4.70;;
5452;SDS011;2749;53.576;9.822;2023-08-06T02:36:25;4.03;;;3.73;;
5452;SDS011;2749;53.576;9.822;2023-08-06T02:38:54;6.30;;;5.07;;
5452;SDS011;2749;53.576;9.822;2023-08-06T02:41:20;5.07;;;4.60;;
5452;SDS011;2749;53.576;9.822;2023-08-06T02:43:46;5.83;;;5.23;;
5452;SDS011;2749;53.576;9.822;2023-08-06T02:46:11;6.33;;;4.00;;
5452;SDS011;2749;53.576;9.822;2023-08-06T02:48:37;5.07;;;4.57;;
5452;SDS011;2749;53.576;9.822;2023-08-06T02:51:03;8.37;;;4.73;;
5452;SDS011;2749;53.576;9.822;2023-08-06T02:53:29;4.77;;;4.33;;
5452;SDS011;2749;53.576;9.822;2023-08-06T02:55:56;5.70;;;5.20;;
5452;SDS011;2749;53.576;9.822;2023-08-06T02:58:22;4.70;;;4.30;;
5452;SDS011;2749;53.576;9.822;2023-08-06T03:01:01;5.50;;;4.10;;
5452;SDS011;2749;53.576;9.822;2023-08-06T03:03:28;5.57;;;5.07;;
5452;SDS011;2749;53.576;9.822;2023-08-06T03:05:54;4.50;;;4.10;;
5452;SDS011;2749;53.576;9.822;2023-08-06T03:08:19;4.57;;;4.17;;
5452;SDS011;2749;53.576;9.822;2023-08-06T03:10:47;7.13;;;4.40;;
5452;SDS011;2749;53.576;9.822;2023-08-06T03:13:13;4.57;;;3.83;;
5452;SDS011;2749;53.576;9.822;2023-08-06T03:15:39;3.77;;;3.47;;
5452;SDS011;2749;53.576;9.822;2023-08-06T03:18:05;4.60;;;4.20;;
5452;SDS011;2749;53.576;9.822;2023-08-06T03:20:34;4.90;;;4.50;;
5452;SDS011;2749;53.576;9.822;2023-08-06T03:23:00;4.53;;;4.13;;
5452;SDS011;2749;53.576;9.822;2023-08-06T03:25:26;5.00;;;4.60;;
5452;SDS011;2749;53.576;9.822;2023-08-06T03:27:51;4.57;;;4.17;;
5452;SDS011;2749;53.576;9.822;2023-08-06T03:30:17;5.23;;;4.73;;
5452;SDS011;2749;53.576;9.822;2023-08-06T03:32:43;4.73;;;4.33;;
5452;SDS011;2749;53.576;9.822;2023-08-06T03:35:09;4.47;;;4.07;;
5452;SDS011;2749;53.576;9.822;2023-08-06T03:37:35;4.33;;;3.97;;
5452;SDS011;2749;53.576;9.822;2023-08-06T03:40:01;5.20;;;4.23;;
5452;SDS011;2749;53.576;9.822;2023-08-06T03:42:28;4.50;;;4.07;;
5452;SDS011;2749;53.576;9.822;2023-08-06T03:44:53;5.33;;;4.83;;
5452;SDS011;2749;53.576;9.822;2023-08-06T03:47:19;4.90;;;4.50;;
5452;SDS011;2749;53.576;9.822;2023-08-06T03:49:45;4.60;;;4.27;;
5452;SDS011;2749;53.576;9.822;2023-08-06T03:52:11;7.40;;;4.43;;
5452;SDS011;2749;53.576;9.822;2023-08-06T03:54:37;4.60;;;4.30;;
5452;SDS011;2749;53.576;9.822;2023-08-06T03:57:04;5.53;;;4.60;;
5452;SDS011;2749;53.576;9.822;2023-08-06T03:59:30;5.53;;;4.40;;
5452;SDS011;2749;53.576;9.822;2023-08-06T04:01:56;5.17;;;3.97;;
5452;SDS011;2749;53.576;9.822;2023-08-06T04:04:22;7.60;;;3.87;;
5452;SDS011;2749;53.576;9.822;2023-08-06T04:06:47;4.80;;;4.40;;
5452;SDS011;2749;53.576;9.822;2023-08-06T04:09:13;4.43;;;4.03;;
5452;SDS011;2749;53.576;9.822;2023-08-06T04:11:39;5.73;;;5.17;;
5452;SDS011;2749;53.576;9.822;2023-08-06T04:14:05;4.87;;;4.57;;
5452;SDS011;2749;53.576;9.822;2023-08-06T04:16:31;4.97;;;4.57;;
5452;SDS011;2749;53.576;9.822;2023-08-06T04:18:57;4.90;;;4.50;;
5452;SDS011;2749;53.576;9.822;2023-08-06T04:21:23;5.47;;;4.97;;
5452;SDS011;2749;53.576;9.822;2023-08-06T04:23:49;5.10;;;4.67;;
5452;SDS011;2749;53.576;9.822;2023-08-06T04:26:15;5.10;;;4.60;;
5452;SDS011;2749;53.576;9.822;2023-08-06T04:28:41;5.53;;;5.00;;
5452;SDS011;2749;53.576;9.822;2023-08-06T04:31:07;6.67;;;5.10;;
5452;SDS011;2749;53.576;9.822;2023-08-06T04:33:33;6.10;;;4.30;;
5452;SDS011;2749;53.576;9.822;2023-08-06T04:35:59;4.67;;;4.27;;
5452;SDS011;2749;53.576;9.822;2023-08-06T04:38:25;5.37;;;4.87;;
5452;SDS011;2749;53.576;9.822;2023-08-06T04:40:51;4.43;;;4.10;;
5452;SDS011;2749;53.576;9.822;2023-08-06T04:43:17;6.00;;;5.07;;
5452;SDS011;2749;53.576;9.822;2023-08-06T04:45:46;5.07;;;4.57;;
5452;SDS011;2749;53.576;9.822;2023-08-06T04:48:13;6.97;;;4.43;;
5452;SDS011;2749;53.576;9.822;2023-08-06T04:50:42;5.30;;;4.80;;
5452;SDS011;2749;53.576;9.822;2023-08-06T04:53:08;5.40;;;4.90;;
5452;SDS011;2749;53.576;9.822;2023-08-06T04:55:34;7.43;;;4.37;;
5452;SDS011;2749;53.576;9.822;2023-08-06T04:58:00;4.93;;;4.50;;
5452;SDS011;2749;53.576;9.822;2023-08-06T05:00:26;4.43;;;4.03;;
5452;SDS011;2749;53.576;9.822;2023-08-06T05:02:52;4.63;;;4.23;;
5452;SDS011;2749;53.576;9.822;2023-08-06T05:05:18;4.67;;;4.27;;
5452;SDS011;2749;53.576;9.822;2023-08-06T05:07:45;4.63;;;4.23;;
5452;SDS011;2749;53.576;9.822;2023-08-06T05:10:11;6.00;;;4.50;;
5452;SDS011;2749;53.576;9.822;2023-08-06T05:12:37;4.50;;;4.10;;
5452;SDS011;2749;53.576;9.822;2023-08-06T05:15:03;5.13;;;4.63;;
5452;SDS011;2749;53.576;9.822;2023-08-06T05:17:29;6.60;;;4.13;;
5452;SDS011;2749;53.576;9.822;2023-08-06T05:19:55;7.67;;;4.77;;
5452;SDS011;2749;53.576;9.822;2023-08-06T05:22:21;4.17;;;3.77;;
5452;SDS011;2749;53.576;9.822;2023-08-06T05:24:47;5.50;;;4.43;;
5452;SDS011;2749;53.576;9.822;2023-08-06T05:27:13;5.13;;;4.73;;
5452;SDS011;2749;53.576;9.822;2023-08-06T05:29:39;4.60;;;4.20;;
5452;SDS011;2749;53.576;9.822;2023-08-06T05:32:05;7.87;;;4.57;;
5452;SDS011;2749;53.576;9.822;2023-08-06T05:34:31;6.30;;;4.37;;
5452;SDS011;2749;53.576;9.822;2023-08-06T05:36:56;5.20;;;3.60;;
5452;SDS011;2749;53.576;9.822;2023-08-06T05:39:22;4.73;;;4.00;;
5452;SDS011;2749;53.576;9.822;2023-08-06T05:41:48;5.27;;;4.77;;
5452;SDS011;2749;53.576;9.822;2023-08-06T05:44:15;4.27;;;3.40;;
5452;SDS011;2749;53.576;9.822;2023-08-06T05:46:41;6.17;;;4.00;;
5452;SDS011;2749;53.576;9.822;2023-08-06T05:49:07;4.50;;;3.50;;
5452;SDS011;2749;53.576;9.822;2023-08-06T05:51:33;5.10;;;4.20;;
5452;SDS011;2749;53.576;9.822;2023-08-06T05:53:59;4.90;;;4.43;;
5452;SDS011;2749;53.576;9.822;2023-08-06T05:56:24;4.17;;;3.80;;
5452;SDS011;2749;53.576;9.822;2023-08-06T05:58:50;6.13;;;4.60;;
5452;SDS011;2749;53.576;9.822;2023-08-06T06:01:18;6.13;;;4.23;;
5452;SDS011;2749;53.576;9.822;2023-08-06T06:03:44;3.43;;;3.13;;
5452;SDS011;2749;53.576;9.822;2023-08-06T06:06:10;5.20;;;4.70;;
5452;SDS011;2749;53.576;9.822;2023-08-06T06:08:36;4.77;;;4.30;;
5452;SDS011;2749;53.576;9.822;2023-08-06T06:11:02;5.83;;;4.10;;
5452;SDS011;2749;53.576;9.822;2023-08-06T06:13:28;5.00;;;4.50;;
5452;SDS011;2749;53.576;9.822;2023-08-06T06:15:54;5.00;;;4.50;;
5452;SDS011;2749;53.576;9.822;2023-08-06T06:18:23;11.43;;;5.10;;
5452;SDS011;2749;53.576;9.822;2023-08-06T06:20:49;5.47;;;4.60;;
5452;SDS011;2749;53.576;9.822;2023-08-06T06:23:15;8.57;;;5.80;;
5452;SDS011;2749;53.576;9.822;2023-08-06T06:25:47;4.27;;;3.87;;
5452;SDS011;2749;53.576;9.822;2023-08-06T06:28:14;5.00;;;4.13;;
5452;SDS011;2749;53.576;9.822;2023-08-06T06:30:40;4.47;;;4.07;;
5452;SDS011;2749;53.576;9.822;2023-08-06T06:33:06;5.00;;;4.60;;
5452;SDS011;2749;53.576;9.822;2023-08-06T06:35:32;5.83;;;4.93;;
5452;SDS011;2749;53.576;9.822;2023-08-06T06:37:58;4.70;;;4.30;;
5452;SDS011;2749;53.576;9.822;2023-08-06T06:40:25;6.50;;;4.90;;
5452;SDS011;2749;53.576;9.822;2023-08-06T06:42:51;7.57;;;4.67;;
5452;SDS011;2749;53.576;9.822;2023-08-06T06:45:16;5.50;;;5.00;;
5452;SDS011;2749;53.576;9.822;2023-08-06T06:47:42;4.53;;;4.10;;
5452;SDS011;2749;53.576;9.822;2023-08-06T06:50:08;4.70;;;4.30;;
5452;SDS011;2749;53.576;9.822;2023-08-06T06:52:34;5.97;;;4.90;;
5452;SDS011;2749;53.576;9.822;2023-08-06T06:55:00;5.57;;;4.57;;
5452;SDS011;2749;53.576;9.822;2023-08-06T06:57:26;9.30;;;5.27;;
5452;SDS011;2749;53.576;9.822;2023-08-06T06:59:52;5.87;;;5.27;;
5452;SDS011;2749;53.576;9.822;2023-08-06T07:02:18;7.30;;;4.97;;
5452;SDS011;2749;53.576;9.822;2023-08-06T07:04:44;5.27;;;4.77;;
5452;SDS011;2749;53.576;9.822;2023-08-06T07:07:10;6.20;;;5.53;;
5452;SDS011;2749;53.576;9.822;2023-08-06T07:09:36;5.70;;;5.20;;
5452;SDS011;2749;53.576;9.822;2023-08-06T07:12:02;5.93;;;5.33;;
5452;SDS011;2749;53.576;9.822;2023-08-06T07:14:28;9.70;;;5.23;;
5452;SDS011;2749;53.576;9.822;2023-08-06T07:16:54;6.93;;;6.23;;
5452;SDS011;2749;53.576;9.822;2023-08-06T07:19:20;8.37;;;5.50;;
5452;SDS011;2749;53.576;9.822;2023-08-06T07:21:46;5.63;;;5.13;;
5452;SDS011;2749;53.576;9.822;2023-08-06T07:24:12;6.20;;;5.13;;
5452;SDS011;2749;53.576;9.822;2023-08-06T07:26:38;5.63;;;5.03;;
5452;SDS011;2749;53.576;9.822;2023-08-06T07:29:04;9.50;;;5.80;;
5452;SDS011;2749;53.576;9.822;2023-08-06T07:31:30;6.47;;;5.73;;
5452;SDS011;2749;53.576;9.822;2023-08-06T07:33:56;8.83;;;5.57;;
5452;SDS011;2749;53.576;9.822;2023-08-06T07:36:22;6.90;;;6.20;;
5452;SDS011;2749;53.576;9.822;2023-08-06T07:38:48;8.77;;;6.53;;
5452;SDS011;2749;53.576;9.822;2023-08-06T07:41:16;8.70;;;5.83;;
5452;SDS011;2749;53.576;9.822;2023-08-06T07:43:42;6.47;;;5.87;;
5452;SDS011;2749;53.576;9.822;2023-08-06T07:46:08;5.77;;;5.07;;
5452;SDS011;2749;53.576;9.822;2023-08-06T07:48:34;11.43;;;5.67;;
5452;SDS011;2749;53.576;9.822;2023-08-06T07:51:00;6.37;;;5.40;;
5452;SDS011;2749;53.576;9.822;2023-08-06T07:53:26;7.03;;;6.00;;
5452;SDS011;2749;53.576;9.822;2023-08-06T07:55:54;5.77;;;5.27;;
5452;SDS011;2749;53.576;9.822;2023-08-06T07:58:20;6.40;;;5.37;;
5452;SDS011;2749;53.576;9.822;2023-08-06T08:00:46;6.03;;;5.40;;
5452;SDS011;2749;53.576;9.822;2023-08-06T08:03:12;8.10;;;5.10;;
5452;SDS011;2749;53.576;9.822;2023-08-06T08:05:38;7.33;;;6.50;;
5452;SDS011;2749;53.576;9.822;2023-08-06T08:08:04;6.60;;;5.40;;
5452;SDS011;2749;53.576;9.822;2023-08-06T08:10:31;7.43;;;6.50;;
5452;SDS011;2749;53.576;9.822;2023-08-06T08:12:57;6.80;;;5.17;;
5452;SDS011;2749;53.576;9.822;2023-08-06T08:15:24;6.10;;;5.07;;
5452;SDS011;2749;53.576;9.822;2023-08-06T08:17:51;5.50;;;4.70;;
5452;SDS011;2749;53.576;9.822;2023-08-06T08:20:17;7.13;;;5.80;;
5452;SDS011;2749;53.576;9.822;2023-08-06T08:22:43;6.87;;;5.57;;
5452;SDS011;2749;53.576;9.822;2023-08-06T08:25:09;9.20;;;5.67;;
5452;SDS011;2749;53.576;9.822;2023-08-06T08:27:35;7.07;;;6.17;;
5452;SDS011;2749;53.576;9.822;2023-08-06T08:30:01;6.67;;;5.80;;
5452;SDS011;2749;53.576;9.822;2023-08-06T08:32:27;8.30;;;5.67;;
5452;SDS011;2749;53.576;9.822;2023-08-06T08:34:53;6.00;;;5.40;;
5452;SDS011;2749;53.576;9.822;2023-08-06T08:37:19;6.53;;;5.80;;
5452;SDS011;2749;53.576;9.822;2023-08-06T08:39:45;9.90;;;6.43;;
5452;SDS011;2749;53.576;9.822;2023-08-06T08:42:11;5.67;;;5.10;;
5452;SDS011;2749;53.576;9.822;2023-08-06T08:44:37;5.30;;;4.70;;
5452;SDS011;2749;53.576;9.822;2023-08-06T08:47:04;7.70;;;5.80;;
5452;SDS011;2749;53.576;9.822;2023-08-06T08:49:30;8.47;;;5.10;;
5452;SDS011;2749;53.576;9.822;2023-08-06T08:51:56;9.37;;;5.50;;
5452;SDS011;2749;53.576;9.822;2023-08-06T08:54:24;6.20;;;5.70;;
5452;SDS011;2749;53.576;9.822;2023-08-06T08:56:50;7.50;;;5.57;;
5452;SDS011;2749;53.576;9.822;2023-08-06T08:59:16;8.00;;;5.67;;
5452;SDS011;2749;53.576;9.822;2023-08-06T09:01:43;6.03;;;4.83;;
5452;SDS011;2749;53.576;9.822;2023-08-06T09:04:11;6.83;;;5.40;;
5452;SDS011;2749;53.576;9.822;2023-08-06T09:06:37;6.37;;;5.53;;
5452;SDS011;2749;53.576;9.822;2023-08-06T09:09:12;6.90;;;5.20;;
5452;SDS011;2749;53.576;9.822;2023-08-06T09:11:39;5.67;;;5.10;;
5452;SDS011;2749;53.576;9.822;2023-08-06T09:14:08;5.70;;;5.10;;
5452;SDS011;2749;53.576;9.822;2023-08-06T09:16:34;7.27;;;5.00;;
5452;SDS011;2749;53.576;9.822;2023-08-06T09:19:06;7.23;;;6.40;;
5452;SDS011;2749;53.576;9.822;2023-08-06T09:21:32;12.73;;;6.33;;
5452;SDS011;2749;53.576;9.822;2023-08-06T09:23:58;6.50;;;5.90;;
5452;SDS011;2749;53.576;9.822;2023-08-06T09:26:24;6.23;;;5.63;;
5452;SDS011;2749;53.576;9.822;2023-08-06T09:28:58;5.20;;;4.70;;
5452;SDS011;2749;53.576;9.822;2023-08-06T09:31:28;7.17;;;5.77;;
5452;SDS011;2749;53.576;9.822;2023-08-06T09:33:59;8.80;;;5.63;;
5452;SDS011;2749;53.576;9.822;2023-08-06T09:36:26;7.47;;;6.07;;
5452;SDS011;2749;53.576;9.822;2023-08-06T09:38:52;8.13;;;4.90;;
5452;SDS011;2749;53.576;9.822;2023-08-06T09:41:27;8.10;;;5.03;;
5452;SDS011;2749;53.576;9.822;2023-08-06T09:43:53;5.50;;;5.00;;
5452;SDS011;2749;53.576;9.822;2023-08-06T09:46:19;7.30;;;5.80;;
5452;SDS011;2749;53.576;9.822;2023-08-06T09:48:47;6.90;;;5.73;;
5452;SDS011;2749;53.576;9.822;2023-08-06T09:51:13;6.10;;;4.97;;
5452;SDS011;2749;53.576;9.822;2023-08-06T09:53:40;5.70;;;5.10;;
5452;SDS011;2749;53.576;9.822;2023-08-06T09:56:06;6.57;;;5.60;;
5452;SDS011;2749;53.576;9.822;2023-08-06T09:58:32;5.63;;;4.37;;
5452;SDS011;2749;53.576;9.822;2023-08-06T10:00:59;4.83;;;4.43;;
5452;SDS011;2749;53.576;9.822;2023-08-06T10:03:25;6.10;;;5.10;;
5452;SDS011;2749;53.576;9.822;2023-08-06T10:05:53;7.47;;;4.60;;
5452;SDS011;2749;53.576;9.822;2023-08-06T10:08:21;6.27;;;4.53;;
5452;SDS011;2749;53.576;9.822;2023-08-06T10:10:47;6.67;;;4.70;;
5452;SDS011;2749;53.576;9.822;2023-08-06T10:13:13;7.00;;;5.00;;
5452;SDS011;2749;53.576;9.822;2023-08-06T10:15:39;5.97;;;5.17;;
5452;SDS011;2749;53.576;9.822;2023-08-06T10:18:05;4.90;;;4.40;;
5452;SDS011;2749;53.576;9.822;2023-08-06T10:20:35;5.20;;;4.30;;
5452;SDS011;2749;53.576;9.822;2023-08-06T10:23:01;6.03;;;4.70;;
5452;SDS011;2749;53.576;9.822;2023-08-06T10:25:30;4.60;;;4.20;;
5452;SDS011;2749;53.576;9.822;2023-08-06T10:27:57;4.60;;;4.20;;
5452;SDS011;2749;53.576;9.822;2023-08-06T10:30:32;5.87;;;5.20;;
5452;SDS011;2749;53.576;9.822;2023-08-06T10:33:02;7.03;;;5.23;;
5452;SDS011;2749;53.576;9.822;2023-08-06T10:38:14;8.80;;;5.30;;
5452;SDS011;2749;53.576;9.822;2023-08-06T10:40:41;6.13;;;4.93;;
5452;SDS011;2749;53.576;9.822;2023-08-06T10:43:07;6.33;;;5.40;;
5452;SDS011;2749;53.576;9.822;2023-08-06T10:45:35;11.33;;;5.93;;
5452;SDS011;2749;53.576;9.822;2023-08-06T10:48:01;6.53;;;5.13;;
5452;SDS011;2749;53.576;9.822;2023-08-06T10:50:27;6.30;;;5.17;;
5452;SDS011;2749;53.576;9.822;2023-08-06T10:52:53;10.03;;;5.50;;
5452;SDS011;2749;53.576;9.822;2023-08-06T10:55:23;7.20;;;5.33;;
5452;SDS011;2749;53.576;9.822;2023-08-06T10:57:50;8.07;;;6.10;;
5452;SDS011;2749;53.576;9.822;2023-08-06T11:00:16;5.87;;;5.27;;
5452;SDS011;2749;53.576;9.822;2023-08-06T11:02:42;6.40;;;5.80;;
5452;SDS011;2749;53.576;9.822;2023-08-06T11:05:09;6.80;;;6.07;;
5452;SDS011;2749;53.576;9.822;2023-08-06T11:07:36;5.90;;;5.30;;
5452;SDS011;2749;53.576;9.822;2023-08-06T11:10:06;6.33;;;5.70;;
5452;SDS011;2749;53.576;9.822;2023-08-06T11:12:32;6.30;;;5.47;;
5452;SDS011;2749;53.576;9.822;2023-08-06T11:14:59;5.80;;;5.30;;
5452;SDS011;2749;53.576;9.822;2023-08-06T11:17:26;6.50;;;5.70;;
5452;SDS011;2749;53.576;9.822;2023-08-06T11:19:52;5.20;;;4.70;;
5452;SDS011;2749;53.576;9.822;2023-08-06T11:22:20;8.80;;;5.17;;
5452;SDS011;2749;53.576;9.822;2023-08-06T11:24:46;5.03;;;4.63;;
5452;SDS011;2749;53.576;9.822;2023-08-06T11:27:12;7.00;;;5.33;;
5452;SDS011;2749;53.576;9.822;2023-08-06T11:29:39;6.47;;;4.63;;
5452;SDS011;2749;53.576;9.822;2023-08-06T11:32:05;6.23;;;4.57;;
5452;SDS011;2749;53.576;9.822;2023-08-06T11:34:31;5.40;;;4.90;;
5452;SDS011;2749;53.576;9.822;2023-08-06T11:36:57;5.27;;;4.70;;
5452;SDS011;2749;53.576;9.822;2023-08-06T11:39:23;4.97;;;4.00;;
5452;SDS011;2749;53.576;9.822;2023-08-06T11:41:50;7.70;;;4.53;;
5452;SDS011;2749;53.576;9.822;2023-08-06T11:44:18;4.70;;;4.30;;
5452;SDS011;2749;53.576;9.822;2023-08-06T11:46:53;7.40;;;5.10;;
5452;SDS011;2749;53.576;9.822;2023-08-06T11:49:21;5.10;;;4.70;;
5452;SDS011;2749;53.576;9.822;2023-08-06T11:51:49;7.33;;;4.00;;
5452;SDS011;2749;53.576;9.822;2023-08-06T11:54:15;5.17;;;4.47;;
5452;SDS011;2749;53.576;9.822;2023-08-06T11:56:41;4.87;;;4.40;;
5452;SDS011;2749;53.576;9.822;2023-08-06T11:59:08;4.60;;;3.90;;
5452;SDS011;2749;53.576;9.822;2023-08-06T12:01:34;4.93;;;4.53;;
5452;SDS011;2749;53.576;9.822;2023-08-06T12:04:00;4.60;;;4.20;;
5452;SDS011;2749;53.576;9.822;2023-08-06T12:06:28;4.13;;;3.67;;
5452;SDS011;2749;53.576;9.822;2023-08-06T12:08:54;6.07;;;4.90;;
5452;SDS011;2749;53.576;9.822;2023-08-06T12:11:21;7.33;;;4.40;;
5452;SDS011;2749;53.576;9.822;2023-08-06T12:13:50;5.60;;;5.10;;
5452;SDS011;2749;53.576;9.822;2023-08-06T12:16:16;6.97;;;4.90;;
5452;SDS011;2749;53.576;9.822;2023-08-06T12:18:43;8.43;;;4.77;;
5452;SDS011;2749;53.576;9.822;2023-08-06T12:21:10;5.13;;;4.63;;
5452;SDS011;2749;53.576;9.822;2023-08-06T12:23:36;5.13;;;4.57;;
5452;SDS011;2749;53.576;9.822;2023-08-06T12:26:02;5.53;;;4.50;;
5452;SDS011;2749;53.576;9.822;2023-08-06T12:28:27;5.13;;;4.53;;
5452;SDS011;2749;53.576;9.822;2023-08-06T12:30:53;5.80;;;5.30;;
5452;SDS011;2749;53.576;9.822;2023-08-06T12:33:20;5.83;;;5.07;;
5452;SDS011;2749;53.576;9.822;2023-08-06T12:35:46;6.33;;;5.70;;
5452;SDS011;2749;53.576;9.822;2023-08-06T12:38:12;5.77;;;4.47;;
5452;SDS011;2749;53.576;9.822;2023-08-06T12:40:38;5.07;;;4.60;;
5452;SDS011;2749;53.576;9.822;2023-08-06T12:43:04;4.93;;;4.50;;
5452;SDS011;2749;53.576;9.822;2023-08-06T12:45:30;5.13;;;4.67;;
5452;SDS011;2749;53.576;9.822;2023-08-06T12:47:56;9.30;;;4.77;;
5452;SDS011;2749;53.576;9.822;2023-08-06T12:50:22;5.37;;;4.87;;
5452;SDS011;2749;53.576;9.822;2023-08-06T12:52:48;5.47;;;5.00;;
5452;SDS011;2749;53.576;9.822;2023-08-06T12:55:14;4.87;;;4.47;;
5452;SDS011;2749;53.576;9.822;2023-08-06T12:57:40;7.07;;;4.40;;
5452;SDS011;2749;53.576;9.822;2023-08-06T13:00:06;7.20;;;5.50;;
5452;SDS011;2749;53.576;9.822;2023-08-06T13:02:32;7.43;;;5.67;;
5452;SDS011;2749;53.576;9.822;2023-08-06T13:04:58;5.57;;;5.07;;
5452;SDS011;2749;53.576;9.822;2023-08-06T13:07:23;6.30;;;5.67;;
5452;SDS011;2749;53.576;9.822;2023-08-06T13:09:50;6.80;;;4.87;;
5452;SDS011;2749;53.576;9.822;2023-08-06T13:12:16;5.43;;;4.93;;
5452;SDS011;2749;53.576;9.822;2023-08-06T13:14:45;4.80;;;4.40;;
5452;SDS011;2749;53.576;9.822;2023-08-06T13:17:11;5.33;;;4.87;;
5452;SDS011;2749;53.576;9.822;2023-08-06T13:19:37;8.00;;;5.13;;
5452;SDS011;2749;53.576;9.822;2023-08-06T13:22:03;7.73;;;5.97;;
5452;SDS011;2749;53.576;9.822;2023-08-06T13:24:30;5.10;;;4.70;;
5452;SDS011;2749;53.576;9.822;2023-08-06T13:26:56;4.43;;;4.07;;
5452;SDS011;2749;53.576;9.822;2023-08-06T13:29:22;8.00;;;5.47;;
5452;SDS011;2749;53.576;9.822;2023-08-06T13:31:48;5.17;;;4.77;;
5452;SDS011;2749;53.576;9.822;2023-08-06T13:34:14;4.97;;;4.33;;
5452;SDS011;2749;53.576;9.822;2023-08-06T13:36:41;6.47;;;4.33;;
5452;SDS011;2749;53.576;9.822;2023-08-06T13:39:07;5.57;;;4.47;;
5452;SDS011;2749;53.576;9.822;2023-08-06T13:41:33;4.87;;;4.57;;
5452;SDS011;2749;53.576;9.822;2023-08-06T13:43:59;9.90;;;5.27;;
5452;SDS011;2749;53.576;9.822;2023-08-06T13:46:25;6.43;;;4.40;;
5452;SDS011;2749;53.576;9.822;2023-08-06T13:48:51;5.23;;;4.73;;
5452;SDS011;2749;53.576;9.822;2023-08-06T13:51:17;6.20;;;5.60;;
5452;SDS011;2749;53.576;9.822;2023-08-06T13:53:43;5.43;;;4.93;;
5452;SDS011;2749;53.576;9.822;2023-08-06T13:56:09;4.50;;;4.13;;
5452;SDS011;2749;53.576;9.822;2023-08-06T13:58:36;5.73;;;4.70;;
5452;SDS011;2749;53.576;9.822;2023-08-06T14:01:02;5.00;;;4.43;;
5452;SDS011;2749;53.576;9.822;2023-08-06T14:03:28;4.47;;;3.57;;
5452;SDS011;2749;53.576;9.822;2023-08-06T14:05:54;7.23;;;4.43;;
5452;SDS011;2749;53.576;9.822;2023-08-06T14:08:23;3.83;;;3.23;;
5452;SDS011;2749;53.576;9.822;2023-08-06T14:10:50;8.53;;;4.47;;
5452;SDS011;2749;53.576;9.822;2023-08-06T14:13:16;3.77;;;3.43;;
5452;SDS011;2749;53.576;9.822;2023-08-06T14:15:42;4.10;;;3.70;;
5452;SDS011;2749;53.576;9.822;2023-08-06T14:18:11;3.50;;;3.20;;
5452;SDS011;2749;53.576;9.822;2023-08-06T14:20:37;7.70;;;3.13;;
5452;SDS011;2749;53.576;9.822;2023-08-06T14:23:03;8.07;;;3.43;;
5452;SDS011;2749;53.576;9.822;2023-08-06T14:25:29;3.80;;;3.07;;
5452;SDS011;2749;53.576;9.822;2023-08-06T14:27:55;4.20;;;3.50;;
5452;SDS011;2749;53.576;9.822;2023-08-06T14:30:21;4.10;;;3.20;;
5452;SDS011;2749;53.576;9.822;2023-08-06T14:32:47;4.10;;;3.40;;
5452;SDS011;2749;53.576;9.822;2023-08-06T14:35:13;3.60;;;2.90;;
5452;SDS011;2749;53.576;9.822;2023-08-06T14:37:39;3.87;;;3.57;;
5452;SDS011;2749;53.576;9.822;2023-08-06T14:40:06;3.70;;;3.17;;
5452;SDS011;2749;53.576;9.822;2023-08-06T14:42:32;3.50;;;3.17;;
5452;SDS011;2749;53.576;9.822;2023-08-06T14:44:58;3.73;;;3.43;;
5452;SDS011;2749;53.576;9.822;2023-08-06T14:47:24;3.90;;;3.40;;
5452;SDS011;2749;53.576;9.822;2023-08-06T14:49:50;3.77;;;3.30;;
5452;SDS011;2749;53.576;9.822;2023-08-06T14:52:16;2.93;;;2.70;;
5452;SDS011;2749;53.576;9.822;2023-08-06T14:54:42;2.50;;;2.23;;
5452;SDS011;2749;53.576;9.822;2023-08-06T14:57:09;4.30;;;2.97;;
5452;SDS011;2749;53.576;9.822;2023-08-06T14:59:35;3.50;;;3.20;;
5452;SDS011;2749;53.576;9.822;2023-08-06T15:02:01;3.53;;;3.20;;
5452;SDS011;2749;53.576;9.822;2023-08-06T15:04:28;3.03;;;2.80;;
5452;SDS011;2749;53.576;9.822;2023-08-06T15:06:54;6.13;;;3.17;;
5452;SDS011;2749;53.576;9.822;2023-08-06T15:09:20;4.33;;;3.93;;
5452;SDS011;2749;53.576;9.822;2023-08-06T15:11:47;3.67;;;3.07;;
5452;SDS011;2749;53.576;9.822;2023-08-06T15:14:13;2.70;;;2.50;;
5452;SDS011;2749;53.576;9.822;2023-08-06T15:16:39;2.77;;;2.57;;